»·PEaware :: N110AB L88-KSBP

N110AB :: L88-KSBP

FLIGHT INFORMATION

Flight Status: Arrived
Operator: Privately registered:
United States
More flights under this callsign
Pilot: Bai G. (26225)
Aircraft: CESSNA 172 SKYHAWK
(C172)
More flights by this aircraft type
Origin: L88 New Cuyama
United States
Destination: KSBP San Luis Co Regl
United States
More flights between these airports :: More routes between these airports
Route:
File this flight plan on PilotEdge
Remarks:
Altitude:
(Current/Filed)
7,500ft
Speed:
(Current/Filed)
100kts
Departed: 11-Sep-19 08:36 PM
Arrived: 11-Sep-19 09:10 PM
Distance/Time
Traveled:
0nm/0:34
Distance/Time
To Go:
Arrived

Flight Plot

Page will automatically refresh every two minutes.


Map Options




Map Legend


Flown Route
Filed Route
Departure Airport
Arrival Airport
Navaid (VOR, NDB)
Fix

Horizontal Profiles

Position Reports

Time Latitude Longitude Heading Altitude Ground
Speed
11-Sep-19 20:26 35.235971 -120.635461 303 216ft 0kts
11-Sep-19 20:27 35.235971 -120.635461 303 216ft 0kts
11-Sep-19 20:28 35.235971 -120.635461 303 216ft 0kts
11-Sep-19 20:29 35.235971 -120.635461 303 216ft 0kts
11-Sep-19 20:30 35.235971 -120.635461 303 216ft 0kts
11-Sep-19 20:31 35.235971 -120.635461 303 216ft 0kts
11-Sep-19 20:32 34.942854 -119.690285 204 2156ft 0kts
11-Sep-19 20:33 34.942849 -119.690288 212 2156ft 0kts
11-Sep-19 20:34 34.941898 -119.690314 114 2158ft 0kts
11-Sep-19 20:35 34.939545 -119.684363 110 2247ft 73kts
11-Sep-19 20:36 34.931012 -119.662565 174 3108ft 76kts
11-Sep-19 20:37 34.913804 -119.672520 274 3936ft 79kts
11-Sep-19 20:38 34.918802 -119.698584 291 4690ft 79kts
11-Sep-19 20:39 34.931418 -119.720741 308 5181ft 81kts
11-Sep-19 20:40 34.946462 -119.740742 308 5681ft 79kts
11-Sep-19 20:41 34.959810 -119.761608 305 6202ft 79kts
11-Sep-19 20:42 34.972969 -119.784331 302 6883ft 80kts
11-Sep-19 20:43 34.984470 -119.808152 297 7511ft 83kts
11-Sep-19 20:44 34.999120 -119.838557 303 7632ft 115kts
11-Sep-19 20:45 35.017549 -119.870207 308 7559ft 113kts
11-Sep-19 20:46 35.038172 -119.897916 309 7403ft 103kts
11-Sep-19 20:47 35.053309 -119.930582 297 7419ft 115kts
11-Sep-19 20:48 35.070470 -119.962106 300 7474ft 112kts
11-Sep-19 20:49 35.087306 -119.992463 300 7652ft 102kts
11-Sep-19 20:50 35.103894 -120.023163 299 7875ft 108kts
11-Sep-19 20:51 35.116670 -120.056608 291 8209ft 111kts
11-Sep-19 20:52 35.129088 -120.094593 292 8096ft 120kts
11-Sep-19 20:53 35.143529 -120.127259 297 7542ft 95kts
11-Sep-19 20:54 35.158360 -120.158993 296 7692ft 111kts
11-Sep-19 20:55 35.173828 -120.193710 298 7744ft 120kts
11-Sep-19 20:56 35.189146 -120.227972 292 7372ft 111kts
11-Sep-19 20:57 35.195970 -120.263736 282 7189ft 98kts
11-Sep-19 20:58 35.199123 -120.298051 273 7608ft 101kts
11-Sep-19 20:59 35.203209 -120.337136 281 7218ft 116kts
11-Sep-19 21:00 35.209630 -120.376047 281 6680ft 118kts
11-Sep-19 21:01 35.214112 -120.414973 275 6100ft 116kts
11-Sep-19 21:02 35.216024 -120.451187 275 5812ft 101kts
11-Sep-19 21:03 35.221905 -120.485912 287 5459ft 101kts
11-Sep-19 21:04 35.225731 -120.519895 223 4674ft 123kts
11-Sep-19 21:05 35.212422 -120.552835 249 3539ft 117kts
11-Sep-19 21:06 35.211469 -120.588028 292 2320ft 100kts
11-Sep-19 21:07 35.221835 -120.613885 305 1558ft 63kts
11-Sep-19 21:08 35.231478 -120.631300 302 623ft 61kts
11-Sep-19 21:09 35.238384 -120.642952 314 216ft 28kts
11-Sep-19 21:10 35.239959 -120.643902 24 216ft 0kts
11-Sep-19 21:11 35.239944 -120.643687 118 216ft 6kts
11-Sep-19 21:12 35.237453 -120.638875 97 216ft 19kts
11-Sep-19 21:13 35.238555 -120.637772 272 216ft 0kts
11-Sep-19 21:14 35.238555 -120.637772 272 216ft 0kts
11-Sep-19 21:15 35.229462 -120.627734 304 820ft 64kts
11-Sep-19 21:16 35.237689 -120.641719 307 216ft 29kts
11-Sep-19 21:17 35.239946 -120.643909 24 216ft 0kts
11-Sep-19 21:18 35.239988 -120.643852 93 216ft 1kts
11-Sep-19 21:19 35.237841 -120.639833 122 216ft 19kts
11-Sep-19 21:20 35.238555 -120.637772 272 216ft 0kts
11-Sep-19 21:21 34.942853 -119.690285 204 2156ft 0kts
11-Sep-19 21:22 34.942854 -119.690285 204 2156ft 0kts
11-Sep-19 21:23 34.942854 -119.690285 204 2156ft 0kts

Navigation Log

Ident Type
Flight plan parsing failed, navigation log unavailable